Time;durP1;ratioP1;P1;durP2;ratioP2;P2;SDS_P1;SDS_P2;PMS_P1;PMS_P2;Temp;Humidity;BMP_temperature;BMP_pressure;BME280_temperature;BME280_humidity;BME280_pressure;Samples;Min_cycle;Max_cycle;Signal;HPM_P1;HPM_P2
2023/04/25 00:02:19;;;;;;;9.70;8.70;;;;;;;13.55;100.00;99292.44;5110812;28;20437;-67
2023/04/25 00:04:45;;;;;;;9.48;8.52;;;;;;;13.54;100.00;99308.78;5109360;28;20048;-67
2023/04/25 00:07:11;;;;;;;10.80;9.32;;;;;;;13.58;100.00;99310.94;5110934;28;20053;-67
2023/04/25 00:09:36;;;;;;;10.13;8.75;;;;;;;13.62;100.00;99306.88;5111077;28;20050;-67
2023/04/25 00:12:02;;;;;;;12.48;9.77;;;;;;;13.37;100.00;99280.25;5110627;28;20088;-67
2023/04/25 00:14:27;;;;;;;11.68;9.20;;;;;;;13.47;100.00;99291.66;5110585;28;20062;-67
2023/04/25 00:16:54;;;;;;;11.32;9.57;;;;;;;13.34;100.00;99284.16;5109196;28;20095;-67
2023/04/25 00:19:19;;;;;;;10.85;9.73;;;;;;;13.30;100.00;99268.53;5109263;28;20649;-67
2023/04/25 00:21:46;;;;;;;11.63;9.38;;;;;;;13.46;100.00;99290.84;5110784;28;20050;-67
2023/04/25 00:24:12;;;;;;;10.90;9.43;;;;;;;13.34;100.00;99297.63;5110278;28;20083;-67
2023/04/25 00:26:38;;;;;;;13.30;10.07;;;;;;;13.25;100.00;99279.81;5110479;28;20064;-67
2023/04/25 00:29:03;;;;;;;11.10;9.90;;;;;;;13.32;100.00;99290.75;5110382;28;20058;-67
2023/04/25 00:31:29;;;;;;;12.13;9.40;;;;;;;13.30;100.00;99290.06;5110122;28;20065;-67
2023/04/25 00:33:54;;;;;;;10.82;9.30;;;;;;;13.25;100.00;99290.59;5110338;28;20047;-67
2023/04/25 00:36:20;;;;;;;12.27;9.27;;;;;;;13.15;100.00;99283.75;5110201;28;20026;-67
2023/04/25 00:38:45;;;;;;;10.13;9.05;;;;;;;13.07;100.00;99273.03;5109971;28;20126;-67
2023/04/25 00:41:12;;;;;;;10.82;9.73;;;;;;;12.94;100.00;99276.28;5110408;28;20027;-67
2023/04/25 00:43:37;;;;;;;10.18;8.55;;;;;;;13.03;100.00;99285.19;5110500;28;20027;-67
2023/04/25 00:46:03;;;;;;;11.10;8.63;;;;;;;13.03;100.00;99279.78;5113559;28;20518;-67
2023/04/25 00:48:29;;;;;;;8.95;8.00;;;;;;;13.06;100.00;99277.56;5114308;28;20658;-67
2023/04/25 00:50:57;;;;;;;10.68;7.45;;;;;;;13.06;100.00;99272.19;5114380;28;20032;-67
2023/04/25 00:53:24;;;;;;;8.73;7.82;;;;;;;13.12;100.00;99271.50;5114479;28;20032;-67
2023/04/25 00:55:50;;;;;;;9.60;7.80;;;;;;;13.12;100.00;99268.78;5114437;28;20444;-67
2023/04/25 00:58:20;;;;;;;9.32;7.20;;;;;;;13.11;100.00;99274.34;5113989;28;20027;-67
2023/04/25 01:00:47;;;;;;;8.00;7.05;;;;;;;13.00;100.00;99264.00;5113690;28;20375;-67
2023/04/25 01:03:17;;;;;;;11.75;7.90;;;;;;;13.00;100.00;99272.06;5114252;27;20141;-66
2023/04/25 01:05:43;;;;;;;8.05;7.10;;;;;;;12.96;100.00;99270.72;5112931;28;20024;-61
2023/04/25 01:08:09;;;;;;;8.27;6.70;;;;;;;12.92;100.00;99255.91;5113458;28;20055;-61
2023/04/25 01:10:36;;;;;;;7.38;5.90;;;;;;;12.99;100.00;99273.91;5106879;28;20475;-62
2023/04/25 01:13:02;;;;;;;7.72;6.68;;;;;;;13.00;100.00;99280.16;5114030;28;20412;-62
2023/04/25 01:15:28;;;;;;;6.25;5.35;;;;;;;13.00;100.00;99272.88;5113983;28;20039;-62
2023/04/25 01:17:55;;;;;;;8.05;5.97;;;;;;;13.01;100.00;99284.50;5113705;28;20031;-61
2023/04/25 01:20:22;;;;;;;8.18;5.85;;;;;;;12.92;100.00;99280.13;5114031;27;20024;-62
2023/04/25 01:22:49;;;;;;;5.32;4.82;;;;;;;12.82;100.00;99274.13;5113932;28;20023;-62
2023/04/25 01:25:14;;;;;;;8.27;5.32;;;;;;;12.90;100.00;99279.47;5113821;28;20051;-67
2023/04/25 01:27:40;;;;;;;6.60;4.97;;;;;;;12.80;100.00;99265.41;5113451;28;20031;-67
2023/04/25 01:30:06;;;;;;;4.53;4.13;;;;;;;12.84;100.00;99285.56;5113603;28;20024;-67
2023/04/25 01:32:38;;;;;;;6.88;4.50;;;;;;;12.79;100.00;99267.25;5113412;28;20040;-67
2023/04/25 01:35:09;;;;;;;5.68;4.28;;;;;;;12.87;100.00;99275.25;5113572;28;20032;-67
2023/04/25 01:37:36;;;;;;;5.57;4.88;;;;;;;12.94;100.00;99276.28;5113227;28;20095;-62
2023/04/25 01:40:02;;;;;;;5.57;4.57;;;;;;;12.92;100.00;99272.91;5113193;28;20043;-62
2023/04/25 01:42:28;;;;;;;4.15;3.75;;;;;;;12.93;100.00;99279.94;5113454;27;20043;-62
2023/04/25 01:44:53;;;;;;;4.90;4.40;;;;;;;12.87;100.00;99275.25;5113220;28;20023;-67
2023/04/25 01:47:19;;;;;;;5.47;4.55;;;;;;;12.81;100.00;99276.00;5113261;28;20028;-67
2023/04/25 01:49:44;;;;;;;6.60;4.97;;;;;;;12.76;100.00;99269.44;5113207;28;20574;-67
2023/04/25 01:52:10;;;;;;;5.60;3.67;;;;;;;12.68;100.00;99266.78;5111847;28;20035;-67
2023/04/25 01:54:35;;;;;;;4.45;3.40;;;;;;;12.72;100.00;99268.09;5113304;28;20049;-67
2023/04/25 01:57:01;;;;;;;4.78;3.72;;;;;;;12.72;100.00;99282.41;5112103;28;20035;-67
2023/04/25 01:59:26;;;;;;;5.80;3.55;;;;;;;12.68;100.00;99273.00;5112882;28;20036;-67
2023/04/25 02:01:52;;;;;;;3.72;2.97;;;;;;;12.56;100.00;99249.34;5111498;28;20031;-67
2023/04/25 02:04:17;;;;;;;9.32;3.00;;;;;;;12.60;100.00;99273.03;5112701;28;20028;-67
2023/04/25 02:06:43;;;;;;;2.85;2.63;;;;;;;12.64;100.00;99270.84;5112998;28;20031;-67
2023/04/25 02:09:08;;;;;;;3.90;2.80;;;;;;;12.54;100.00;99251.38;5112243;28;20043;-67
2023/04/25 02:11:34;;;;;;;4.22;2.75;;;;;;;12.65;100.00;99253.69;5113080;28;20129;-62
2023/04/25 02:13:59;;;;;;;3.95;3.03;;;;;;;12.69;100.00;99258.53;5112616;28;20030;-63
2023/04/25 02:16:25;;;;;;;3.83;2.47;;;;;;;12.66;100.00;99253.50;5112793;28;20035;-63
2023/04/25 02:18:52;;;;;;;4.50;3.00;;;;;;;12.62;100.00;99254.03;5112503;28;20519;-62
2023/04/25 02:21:18;;;;;;;3.50;3.20;;;;;;;12.57;100.00;99254.53;5112330;28;20031;-62
2023/04/25 02:23:45;;;;;;;2.85;2.53;;;;;;;12.61;100.00;99253.16;5110950;28;20079;-63
2023/04/25 02:26:11;;;;;;;3.65;2.13;;;;;;;12.59;100.00;99246.28;5112222;28;20024;-62
2023/04/25 02:28:36;;;;;;;5.47;2.35;;;;;;;12.62;100.00;99246.81;5111791;28;20020;-62
2023/04/25 02:31:02;;;;;;;3.08;2.13;;;;;;;12.54;100.00;99237.94;5111723;28;20031;-62
2023/04/25 02:33:27;;;;;;;2.58;2.20;;;;;;;12.56;100.00;99243.94;5111766;28;20047;-62
2023/04/25 02:35:53;;;;;;;5.20;2.40;;;;;;;12.57;100.00;99241.09;5111538;28;20042;-62
2023/04/25 02:38:18;;;;;;;5.45;2.38;;;;;;;12.45;100.00;99217.44;5111233;28;20536;-62
2023/04/25 02:40:43;;;;;;;4.03;2.55;;;;;;;12.60;100.00;99235.38;5111674;28;20023;-62
2023/04/25 02:43:09;;;;;;;4.30;3.90;;;;;;;12.46;100.00;99214.59;5111297;28;20015;-62
2023/04/25 02:45:35;;;;;;;2.90;2.67;;;;;;;12.54;100.00;99222.59;5110711;28;20489;-63
2023/04/25 02:48:01;;;;;;;2.67;2.47;;;;;;;12.54;100.00;99221.78;5111044;28;20560;-62
2023/04/25 02:50:26;;;;;;;3.90;2.65;;;;;;;12.42;100.00;99213.25;5108248;28;20085;-62
2023/04/25 02:52:51;;;;;;;3.42;2.67;;;;;;;12.38;100.00;99217.28;5110956;28;20023;-63
2023/04/25 02:55:17;;;;;;;2.50;2.30;;;;;;;12.38;100.00;99216.47;5111383;28;20092;-63
2023/04/25 02:57:42;;;;;;;4.57;2.65;;;;;;;12.19;100.00;99190.78;5111681;28;20756;-62
2023/04/25 03:00:08;;;;;;;3.10;2.80;;;;;;;12.29;100.00;99212.94;5111018;28;20024;-62
2023/04/25 03:02:34;;;;;;;3.53;2.72;;;;;;;12.27;100.00;99208.75;5111493;28;20027;-62
2023/04/25 03:04:59;;;;;;;2.88;2.60;;;;;;;12.34;100.00;99217.78;5111079;28;20074;-62
2023/04/25 03:07:25;;;;;;;4.18;2.70;;;;;;;12.36;100.00;99213.09;5111644;28;20027;-62
2023/04/25 03:09:50;;;;;;;5.30;2.83;;;;;;;12.43;100.00;99211.38;5111164;28;20016;-62
2023/04/25 03:12:16;;;;;;;3.42;3.00;;;;;;;12.38;100.00;99219.97;5111770;28;20558;-62
2023/04/25 03:14:41;;;;;;;5.22;2.75;;;;;;;12.33;100.00;99216.13;5111646;28;20062;-63
2023/04/25 03:17:07;;;;;;;4.13;3.40;;;;;;;12.20;100.00;99207.75;5111195;28;20658;-62
2023/04/25 03:19:32;;;;;;;3.70;3.33;;;;;;;12.26;100.00;99220.53;5111327;28;20062;-62
2023/04/25 03:21:57;;;;;;;5.03;3.03;;;;;;;12.27;100.00;99216.81;5111523;28;20019;-62
2023/04/25 03:24:23;;;;;;;5.38;3.47;;;;;;;12.25;100.00;99210.78;5111485;28;20027;-63
2023/04/25 03:26:48;;;;;;;4.93;3.20;;;;;;;12.28;100.00;99205.06;5111275;28;20036;-63
2023/04/25 03:29:14;;;;;;;4.38;3.58;;;;;;;12.17;100.00;99203.56;5111257;28;20084;-62
2023/04/25 03:31:39;;;;;;;4.45;3.22;;;;;;;12.25;100.00;99213.47;5111198;28;20063;-63
2023/04/25 03:34:05;;;;;;;4.18;3.50;;;;;;;12.36;100.00;99216.63;5111337;28;20036;-62
2023/04/25 03:36:30;;;;;;;7.40;3.45;;;;;;;12.24;100.00;99214.47;5111353;28;20452;-67
2023/04/25 03:38:56;;;;;;;6.07;3.80;;;;;;;12.16;100.00;99203.75;5110728;28;20059;-67
2023/04/25 03:41:21;;;;;;;5.78;3.58;;;;;;;12.16;100.00;99195.69;5109808;28;20187;-67
2023/04/25 03:43:47;;;;;;;4.72;3.00;;;;;;;12.21;100.00;99228.25;5111024;28;20430;-67
2023/04/25 03:46:12;;;;;;;4.80;3.72;;;;;;;12.18;100.00;99221.38;5110681;28;20019;-67
2023/04/25 03:48:37;;;;;;;5.97;4.30;;;;;;;12.13;100.00;99221.06;5108825;28;20032;-67
2023/04/25 03:51:03;;;;;;;4.72;4.07;;;;;;;12.22;100.00;99225.38;5109424;28;20490;-67
2023/04/25 03:53:28;;;;;;;4.50;4.07;;;;;;;12.10;100.00;99224.09;5109503;28;20023;-67
2023/04/25 03:55:54;;;;;;;4.40;4.00;;;;;;;12.00;100.00;99210.00;5109406;28;20031;-67
2023/04/25 03:58:19;;;;;;;4.68;3.88;;;;;;;11.93;100.00;99198.22;5108761;28;20042;-63
2023/04/25 04:00:45;;;;;;;5.03;3.83;;;;;;;12.19;100.00;99238.34;5110589;28;20019;-62
2023/04/25 04:03:10;;;;;;;3.75;3.28;;;;;;;12.26;100.00;99233.97;5110397;28;20542;-63
2023/04/25 04:05:37;;;;;;;5.22;3.75;;;;;;;12.18;100.00;99233.97;5110507;28;20073;-64
2023/04/25 04:08:02;;;;;;;4.13;3.72;;;;;;;12.08;100.00;99227.94;5110197;28;20032;-62
2023/04/25 04:10:28;;;;;;;6.03;4.15;;;;;;;12.18;100.00;99236.66;5110398;28;20036;-62
2023/04/25 04:12:53;;;;;;;8.75;4.10;;;;;;;11.98;100.00;99219.22;5110183;28;20539;-62
2023/04/25 04:15:18;;;;;;;6.97;4.25;;;;;;;12.12;100.00;99237.34;5108598;28;20023;-62
2023/04/25 04:17:44;;;;;;;4.30;3.88;;;;;;;11.89;100.00;99215.72;5108401;28;20081;-62
2023/04/25 04:20:10;;;;;;;6.28;4.40;;;;;;;12.14;100.00;99236.16;5109643;28;20055;-62
2023/04/25 04:22:36;;;;;;;5.10;4.00;;;;;;;12.04;100.00;99230.16;5110316;28;20024;-62
2023/04/25 04:25:02;;;;;;;5.05;4.07;;;;;;;12.05;100.00;99226.44;5109956;28;20019;-62
2023/04/25 04:27:29;;;;;;;7.93;3.45;;;;;;;12.20;100.00;99245.41;5108511;28;20123;-63
2023/04/25 04:29:54;;;;;;;4.47;3.50;;;;;;;12.19;100.00;99262.53;5108171;28;20046;-62
2023/04/25 04:32:20;;;;;;;4.00;3.60;;;;;;;12.14;100.00;99256.81;5107420;28;20051;-63
2023/04/25 04:34:47;;;;;;;4.57;3.80;;;;;;;12.14;100.00;99268.44;5109193;28;20513;-67
2023/04/25 04:37:12;;;;;;;4.82;3.75;;;;;;;12.12;100.00;99266.94;5108490;28;20082;-67
2023/04/25 04:39:38;;;;;;;5.07;3.78;;;;;;;12.03;100.00;99265.25;5108487;28;20075;-67
2023/04/25 04:42:05;;;;;;;6.05;3.70;;;;;;;12.01;100.00;99268.09;5108917;28;20058;-67
2023/04/25 04:44:35;;;;;;;6.55;3.83;;;;;;;11.94;100.00;99255.50;5109416;28;20400;-67
2023/04/25 04:47:01;;;;;;;9.05;4.18;;;;;;;11.89;100.00;99255.16;5093510;28;20015;-67
2023/04/25 04:49:26;;;;;;;6.82;4.70;;;;;;;12.03;100.00;99271.44;5109755;28;20353;-67
2023/04/25 04:51:52;;;;;;;8.07;4.70;;;;;;;11.98;100.00;99279.19;5109231;28;20036;-67
2023/04/25 04:54:17;;;;;;;5.60;3.95;;;;;;;12.03;100.00;99279.50;5109903;28;20039;-67
2023/04/25 04:56:43;;;;;;;6.18;4.07;;;;;;;11.97;100.00;99274.84;5109625;28;20080;-67
2023/04/25 04:59:08;;;;;;;4.60;3.92;;;;;;;11.99;100.00;99274.66;5109536;28;20506;-67
2023/04/25 05:01:37;;;;;;;5.82;4.13;;;;;;;11.93;100.00;99294.16;5109953;28;20169;-67
2023/04/25 05:04:03;;;;;;;3.95;3.55;;;;;;;12.01;100.00;99286.91;5108566;28;20803;-67
2023/04/25 05:06:29;;;;;;;5.13;3.92;;;;;;;11.87;100.00;99289.44;5110154;28;20340;-67
2023/04/25 05:08:55;;;;;;;5.53;4.03;;;;;;;11.90;100.00;99286.41;5110331;28;20080;-67
2023/04/25 05:11:22;;;;;;;8.18;3.97;;;;;;;11.90;100.00;99297.16;5109519;28;20026;-67
2023/04/25 05:13:47;;;;;;;5.47;3.78;;;;;;;11.90;100.00;99297.16;5109983;28;20062;-67
2023/04/25 05:16:13;;;;;;;6.75;4.30;;;;;;;11.84;100.00;99290.63;5105773;28;20110;-67
2023/04/25 05:18:39;;;;;;;4.85;3.63;;;;;;;11.75;100.00;99301.50;5109880;28;20031;-67
2023/04/25 05:21:05;;;;;;;6.72;4.13;;;;;;;11.71;100.00;99300.16;5108921;28;20092;-67
2023/04/25 05:23:32;;;;;;;4.72;3.75;;;;;;;11.73;100.00;99304.34;5116385;28;20103;-67
2023/04/25 05:25:57;;;;;;;5.97;3.65;;;;;;;11.81;100.00;99295.47;5109032;28;20028;-68
2023/04/25 05:28:23;;;;;;;5.57;3.95;;;;;;;11.84;100.00;99300.50;5108130;28;20088;-67
2023/04/25 05:30:49;;;;;;;4.68;4.00;;;;;;;11.67;100.00;99270.09;5108974;28;20034;-67
2023/04/25 05:33:15;;;;;;;5.00;3.95;;;;;;;11.81;100.00;99300.84;5112103;28;20047;-67
2023/04/25 05:35:40;;;;;;;4.57;4.18;;;;;;;11.76;100.00;99301.34;5113112;27;20067;-67
2023/04/25 05:38:06;;;;;;;4.88;3.90;;;;;;;11.72;100.00;99299.16;5109532;28;20494;-67
2023/04/25 05:40:32;;;;;;;6.47;3.97;;;;;;;11.70;100.00;99302.00;5111503;28;20032;-67
2023/04/25 05:42:57;;;;;;;4.63;3.58;;;;;;;11.65;100.00;99303.53;5112528;28;20112;-67
2023/04/25 05:45:23;;;;;;;6.50;4.00;;;;;;;11.68;100.00;99309.41;5112579;28;20740;-67
2023/04/25 05:47:48;;;;;;;6.13;4.30;;;;;;;11.51;100.00;99295.06;5112482;28;20024;-67
2023/04/25 05:50:13;;;;;;;5.22;4.00;;;;;;;11.68;100.00;99308.56;5112279;28;20431;-67
2023/04/25 05:52:39;;;;;;;4.25;3.80;;;;;;;11.58;100.00;99306.00;5110869;28;20024;-67
2023/04/25 05:55:05;;;;;;;4.35;3.95;;;;;;;11.61;100.00;99291.41;5111450;28;20027;-67
2023/04/25 05:57:31;;;;;;;4.00;3.50;;;;;;;11.68;100.00;99313.94;5112197;28;20483;-67
2023/04/25 05:59:56;;;;;;;4.35;3.30;;;;;;;11.65;100.00;99319.63;5106798;28;20084;-67
2023/04/25 06:02:22;;;;;;;4.35;3.78;;;;;;;11.63;100.00;99294.78;5109811;27;20084;-67
2023/04/25 06:04:51;;;;;;;4.40;3.97;;;;;;;11.69;100.00;99315.59;5110967;28;20036;-67
2023/04/25 06:07:17;;;;;;;5.80;4.43;;;;;;;11.64;100.00;99313.41;5110797;28;21179;-67
2023/04/25 06:09:43;;;;;;;7.53;4.00;;;;;;;11.55;100.00;99309.03;5111976;28;20027;-67
2023/04/25 06:12:09;;;;;;;5.65;3.67;;;;;;;11.67;100.00;99309.56;5111556;28;20035;-67
2023/04/25 06:14:35;;;;;;;3.92;3.40;;;;;;;11.69;100.00;99327.19;5112075;28;20031;-67
2023/04/25 06:17:06;;;;;;;3.58;3.28;;;;;;;11.70;100.00;99322.69;5111621;28;20099;-67
2023/04/25 06:19:32;;;;;;;4.60;4.00;;;;;;;11.65;100.00;99325.84;5111655;28;20027;-67
2023/04/25 06:21:58;;;;;;;5.57;3.30;;;;;;;11.70;100.00;99322.69;5111735;28;20662;-67
2023/04/25 06:24:23;;;;;;;4.60;3.60;;;;;;;11.62;100.00;99314.59;5111299;28;20019;-67
2023/04/25 06:26:49;;;;;;;3.40;3.08;;;;;;;11.45;100.00;99311.84;5111363;28;20023;-67
2023/04/25 06:29:14;;;;;;;4.22;3.38;;;;;;;11.66;100.00;99332.03;5111289;28;20032;-67
2023/04/25 06:31:39;;;;;;;5.65;3.38;;;;;;;11.53;100.00;99333.34;5111312;28;20651;-67
2023/04/25 06:34:05;;;;;;;4.45;3.40;;;;;;;11.50;100.00;99340.88;5110947;28;20047;-67
2023/04/25 06:36:30;;;;;;;3.60;3.03;;;;;;;11.53;100.00;99330.66;5111492;28;20085;-67
2023/04/25 06:38:56;;;;;;;3.55;3.05;;;;;;;11.39;100.00;99315.19;5111065;28;20498;-67
2023/04/25 06:41:21;;;;;;;3.25;2.95;;;;;;;11.52;100.00;99325.47;5111006;28;20682;-67
2023/04/25 06:43:47;;;;;;;3.55;3.25;;;;;;;11.48;100.00;99341.03;5110875;28;20059;-67
2023/04/25 06:46:12;;;;;;;6.00;3.40;;;;;;;11.57;100.00;99327.66;5111804;28;20023;-67
2023/04/25 06:48:38;;;;;;;4.28;2.88;;;;;;;11.48;100.00;99324.09;5111918;28;20042;-62
2023/04/25 06:51:03;;;;;;;3.40;2.40;;;;;;;11.51;100.00;99340.72;5111601;28;20032;-62
2023/04/25 06:53:29;;;;;;;6.32;3.03;;;;;;;11.52;100.00;99342.41;5110383;28;20108;-62
2023/04/25 06:55:54;;;;;;;3.38;2.47;;;;;;;11.65;100.00;99351.84;5111503;28;20035;-62
2023/04/25 06:58:20;;;;;;;2.78;2.38;;;;;;;11.44;100.00;99328.13;5110043;28;20221;-62
2023/04/25 07:00:45;;;;;;;5.07;2.17;;;;;;;11.49;100.00;99331.16;5109354;28;20032;-62
2023/04/25 07:03:11;;;;;;;4.53;2.58;;;;;;;11.32;100.00;99319.53;5103851;28;20015;-62
2023/04/25 07:05:37;;;;;;;3.30;2.45;;;;;;;11.49;100.00;99334.66;5104434;28;20720;-63
2023/04/25 07:08:03;;;;;;;3.67;2.65;;;;;;;11.49;100.00;99341.91;5111445;28;20062;-62
2023/04/25 07:10:28;;;;;;;4.68;2.40;;;;;;;11.52;100.00;99346.94;5106195;28;20028;-62
2023/04/25 07:12:54;;;;;;;4.43;2.38;;;;;;;11.48;100.00;99348.25;5097805;28;20063;-62
2023/04/25 07:15:19;;;;;;;3.85;2.70;;;;;;;11.44;100.00;99341.53;5108863;28;20099;-62
2023/04/25 07:17:45;;;;;;;4.43;3.35;;;;;;;11.52;100.00;99342.41;5107703;28;20032;-63
2023/04/25 07:20:11;;;;;;;4.82;3.90;;;;;;;11.67;100.00;99350.69;5099212;28;20459;-62
2023/04/25 07:22:36;;;;;;;5.55;3.40;;;;;;;11.66;100.00;99345.47;5110889;28;20028;-62
2023/04/25 07:25:04;;;;;;;3.50;3.08;;;;;;;11.88;100.00;99347.53;5110402;28;20388;-62
2023/04/25 07:27:29;;;;;;;4.85;3.88;;;;;;;11.86;100.00;99344.19;5110798;27;20030;-62
2023/04/25 07:29:55;;;;;;;4.93;4.25;;;;;;;12.03;100.00;99338.63;5110571;28;20027;-67
2023/04/25 07:32:20;;;;;;;8.23;5.10;;;;;;;11.94;100.00;99310.09;5110267;28;20023;-67
2023/04/25 07:34:46;;;;;;;6.55;4.82;;;;;;;12.17;100.00;99337.97;5105566;28;20050;-67
2023/04/25 07:37:11;;;;;;;6.97;5.00;;;;;;;12.03;100.00;99297.50;5109327;28;20100;-66
2023/04/25 07:39:37;;;;;;;5.75;4.47;;;;;;;12.40;100.00;99317.44;5110256;28;20492;-67
2023/04/25 07:42:03;;;;;;;5.85;4.80;;;;;;;12.45;100.00;99330.38;5110327;28;20016;-67
2023/04/25 07:44:30;;;;;;;6.00;4.63;;;;;;;12.47;100.00;99312.22;5109210;28;20055;-66
2023/04/25 07:46:56;;;;;;;7.30;4.60;;;;;;;12.92;100.00;99326.72;5110406;28;20027;-67
2023/04/25 07:49:21;;;;;;;8.65;4.65;;;;;;;13.01;99.49;99327.56;5110100;28;20581;-67
2023/04/25 07:51:47;;;;;;;4.75;4.35;;;;;;;13.03;97.51;99320.97;5109627;28;20475;-67
2023/04/25 07:54:14;;;;;;;6.43;4.20;;;;;;;13.23;96.47;99326.81;5103002;28;20141;-67
2023/04/25 07:56:40;;;;;;;6.15;4.07;;;;;;;13.30;95.95;99327.78;5105953;28;20026;-67
2023/04/25 07:59:05;;;;;;;5.15;4.60;;;;;;;13.39;94.25;99327.53;5109296;28;20028;-67
2023/04/25 08:01:31;;;;;;;6.65;4.70;;;;;;;13.61;93.89;99324.06;5089775;28;20020;-67
2023/04/25 08:03:56;;;;;;;4.43;3.85;;;;;;;13.67;91.43;99333.28;5089147;27;20543;-67
2023/04/25 08:06:22;;;;;;;6.03;4.25;;;;;;;13.84;87.47;99331.31;5108836;27;20024;-67
2023/04/25 08:08:47;;;;;;;4.75;3.80;;;;;;;14.03;85.72;99339.78;5110090;28;20085;-67
2023/04/25 08:11:12;;;;;;;6.28;4.40;;;;;;;14.00;86.57;99317.72;5109997;28;20467;-67
2023/04/25 08:13:38;;;;;;;5.43;4.05;;;;;;;14.25;86.49;99332.72;5110208;28;20357;-68
2023/04/25 08:16:04;;;;;;;4.38;3.95;;;;;;;14.42;86.10;99324.31;5110094;28;20030;-67
2023/04/25 08:18:29;;;;;;;5.93;4.15;;;;;;;15.08;80.38;99326.09;5110150;28;20026;-68
2023/04/25 08:20:54;;;;;;;3.85;3.40;;;;;;;15.51;75.03;99312.53;5110067;28;20043;-68
2023/04/25 08:23:20;;;;;;;5.82;3.38;;;;;;;16.01;73.09;99322.44;5109736;28;20038;-68
2023/04/25 08:25:46;;;;;;;3.88;3.00;;;;;;;16.43;70.91;99314.31;5110094;28;20460;-68
2023/04/25 08:28:11;;;;;;;3.72;2.70;;;;;;;16.92;67.87;99322.34;5109932;28;20031;-68
2023/04/25 08:30:37;;;;;;;5.50;2.38;;;;;;;17.58;64.46;99313.53;5110001;28;20031;-68
2023/04/25 08:33:02;;;;;;;4.63;2.50;;;;;;;18.37;60.75;99304.50;5110088;28;20034;-68
2023/04/25 08:35:28;;;;;;;5.45;2.20;;;;;;;19.33;55.81;99296.41;5109933;28;20028;-68
2023/04/25 08:37:53;;;;;;;4.13;2.47;;;;;;;19.87;54.27;99321.22;5109583;28;20027;-67
2023/04/25 08:40:25;;;;;;;2.70;2.13;;;;;;;19.13;54.54;99294.78;5109723;28;20028;-67
2023/04/25 08:42:53;;;;;;;2.75;2.30;;;;;;;18.98;56.32;99299.63;5109998;28;20035;-67
2023/04/25 08:45:19;;;;;;;2.10;1.90;;;;;;;19.31;55.84;99284.91;5109854;28;20028;-68
2023/04/25 08:47:45;;;;;;;3.00;1.85;;;;;;;19.43;55.12;99307.66;5108498;28;20039;-67
2023/04/25 08:50:11;;;;;;;2.05;1.77;;;;;;;19.24;56.46;99304.97;5109163;28;20051;-68
2023/04/25 08:52:44;;;;;;;2.80;1.98;;;;;;;19.14;55.66;99291.84;5110010;28;20375;-68
2023/04/25 08:55:12;;;;;;;2.60;1.50;;;;;;;19.69;52.78;99315.69;5109828;28;20341;-67
2023/04/25 08:57:39;;;;;;;2.63;1.58;;;;;;;20.02;49.58;99304.59;5109878;28;20031;-68
2023/04/25 09:00:05;;;;;;;3.17;1.77;;;;;;;19.37;49.17;99284.03;5109734;28;20027;-67
2023/04/25 09:02:31;;;;;;;1.98;1.45;;;;;;;18.71;53.29;99308.88;5109093;28;20039;-67
2023/04/25 09:04:57;;;;;;;3.03;2.03;;;;;;;18.23;55.24;99299.25;5107156;28;20070;-68
2023/04/25 09:07:22;;;;;;;4.93;1.88;;;;;;;17.92;55.55;99299.84;5113216;28;20110;-67
2023/04/25 09:09:48;;;;;;;1.65;1.23;;;;;;;17.65;56.16;99320.66;5113817;28;20137;-67
2023/04/25 09:12:13;;;;;;;1.73;1.58;;;;;;;17.46;56.98;99316.00;5111253;28;20038;-68
2023/04/25 09:14:39;;;;;;;1.77;1.60;;;;;;;17.39;57.67;99311.56;5113795;28;20054;-67
2023/04/25 09:17:07;;;;;;;3.13;1.60;;;;;;;17.40;58.37;99307.81;5113777;28;20074;-68
2023/04/25 09:19:35;;;;;;;4.45;1.40;;;;;;;17.32;58.17;99305.28;5113801;28;20019;-67
2023/04/25 09:22:03;;;;;;;1.60;1.50;;;;;;;17.68;54.85;99308.56;5113454;28;20023;-68
2023/04/25 09:24:37;;;;;;;2.05;1.40;;;;;;;17.56;56.75;99307.47;5113521;28;20030;-67
2023/04/25 09:27:17;;;;;;;3.63;1.70;;;;;;;17.62;54.78;99314.78;5113516;28;20024;-67
2023/04/25 09:29:43;;;;;;;1.80;1.60;;;;;;;17.29;55.40;99300.25;5113564;28;20387;-67
2023/04/25 09:32:23;;;;;;;1.55;1.45;;;;;;;17.14;56.35;99319.38;5113109;28;20076;-67
2023/04/25 09:34:53;;;;;;;4.28;2.00;;;;;;;17.26;56.36;99312.34;5113191;28;20071;-67
2023/04/25 09:37:23;;;;;;;3.97;2.10;;;;;;;17.18;57.95;99308.94;5112707;28;20599;-62
2023/04/25 09:39:53;;;;;;;2.20;2.00;;;;;;;16.96;59.35;99308.22;5112706;28;20537;-62
2023/04/25 09:42:25;;;;;;;3.13;1.83;;;;;;;16.79;60.24;99308.72;5112222;28;20069;-62
2023/04/25 09:44:55;;;;;;;2.28;1.90;;;;;;;16.70;58.45;99312.66;5112601;28;20036;-63
2023/04/25 09:47:23;;;;;;;5.50;1.70;;;;;;;16.49;58.89;99304.56;5112784;28;20106;-62
2023/04/25 09:49:49;;;;;;;1.50;1.40;;;;;;;16.53;59.45;99308.53;5112933;28;20034;-61
2023/04/25 09:52:25;;;;;;;2.05;1.67;;;;;;;16.70;58.73;99313.47;5111249;28;20467;-61
2023/04/25 09:54:51;;;;;;;1.73;1.63;;;;;;;16.88;57.33;99294.00;5112750;28;20383;-63
2023/04/25 09:57:19;;;;;;;2.55;1.50;;;;;;;16.86;57.76;99304.22;5112313;28;20041;-62
2023/04/25 09:59:53;;;;;;;2.88;1.60;;;;;;;16.53;57.34;99290.44;5112584;28;20428;-62
2023/04/25 10:02:21;;;;;;;1.80;1.53;;;;;;;16.62;56.26;99297.38;5112269;28;20034;-61
2023/04/25 10:04:51;;;;;;;2.65;1.58;;;;;;;16.68;56.96;99306.59;5112495;27;20441;-62
2023/04/25 10:07:18;;;;;;;2.05;1.85;;;;;;;16.79;56.30;99306.00;5111101;28;20039;-62
2023/04/25 10:09:49;;;;;;;1.60;1.50;;;;;;;16.66;57.02;99305.94;5111105;28;20020;-67
2023/04/25 10:12:16;;;;;;;1.92;1.40;;;;;;;16.47;56.88;99307.47;5110883;28;20036;-68
2023/04/25 10:14:42;;;;;;;1.52;1.23;;;;;;;16.38;57.07;99299.66;5112345;28;20023;-67
2023/04/25 10:17:11;;;;;;;2.42;1.80;;;;;;;16.58;56.81;99304.25;5111656;28;20038;-67
2023/04/25 10:19:37;;;;;;;1.75;1.38;;;;;;;16.46;58.01;99303.09;5112597;28;20028;-67
2023/04/25 10:22:20;;;;;;;2.40;2.08;;;;;;;16.39;58.46;99310.31;5112704;28;20027;-67
2023/04/25 10:24:46;;;;;;;3.10;2.03;;;;;;;16.42;57.91;99295.53;5110822;28;20024;-67
2023/04/25 10:27:12;;;;;;;4.32;2.30;;;;;;;16.41;58.85;99280.34;5111987;28;20348;-67
2023/04/25 10:29:37;;;;;;;2.72;2.10;;;;;;;16.70;57.20;99297.22;5112175;28;20027;-67
2023/04/25 10:32:03;;;;;;;2.67;2.25;;;;;;;16.72;58.96;99305.13;5112091;28;20073;-67
2023/04/25 10:34:46;;;;;;;2.45;2.10;;;;;;;16.77;58.00;99294.56;5111858;27;20463;-67
2023/04/25 10:37:13;;;;;;;1.80;1.70;;;;;;;16.93;57.77;99291.53;5111755;28;20108;-67
2023/04/25 10:39:41;;;;;;;3.35;2.53;;;;;;;16.85;58.14;99311.50;5111851;28;20054;-67
2023/04/25 10:42:07;;;;;;;3.33;2.55;;;;;;;16.83;58.36;99304.59;5110533;28;20027;-68
2023/04/25 10:44:34;;;;;;;6.25;2.22;;;;;;;16.62;58.69;99299.25;5111204;28;20035;-67
2023/04/25 10:47:01;;;;;;;3.50;2.30;;;;;;;16.54;57.81;99310.25;5111778;28;20026;-67
2023/04/25 10:49:34;;;;;;;2.85;1.98;;;;;;;16.46;58.43;99311.22;5111765;28;20008;-68
2023/04/25 10:52:25;;;;;;;3.03;2.23;;;;;;;16.54;56.35;99321.88;5111921;28;20063;-67
2023/04/25 10:54:57;;;;;;;3.45;2.30;;;;;;;16.19;58.26;99330.09;5110288;28;20035;-67
2023/04/25 10:57:31;;;;;;;2.47;1.80;;;;;;;15.94;57.88;99316.94;5111493;28;20020;-61
2023/04/25 11:00:16;;;;;;;3.37;2.17;;;;;;;15.79;59.84;99320.75;5111145;28;20028;-61
2023/04/25 11:02:44;;;;;;;2.78;2.22;;;;;;;15.93;60.07;99332.56;5111459;28;20047;-67
2023/04/25 11:05:10;;;;;;;4.05;2.20;;;;;;;15.85;60.44;99334.34;5111486;28;20035;-67
2023/04/25 11:07:50;;;;;;;3.15;2.28;;;;;;;15.82;60.72;99323.91;5111448;28;20452;-67
2023/04/25 11:10:16;;;;;;;2.20;2.00;;;;;;;15.79;61.27;99329.72;5110886;28;20024;-66
2023/04/25 11:12:41;;;;;;;5.35;2.38;;;;;;;15.68;62.28;99334.78;5111356;28;20047;-67
2023/04/25 11:15:07;;;;;;;3.60;2.00;;;;;;;15.84;60.40;99338.06;5110991;28;20032;-67
2023/04/25 11:17:33;;;;;;;2.55;1.80;;;;;;;15.70;61.19;99335.41;5110968;28;20034;-67
2023/04/25 11:19:59;;;;;;;2.80;1.83;;;;;;;15.83;61.05;99331.00;5110827;27;20035;-67
2023/04/25 11:22:27;;;;;;;3.17;2.00;;;;;;;15.82;59.23;99323.91;5110767;27;20051;-67
2023/04/25 11:24:52;;;;;;;5.18;2.15;;;;;;;15.80;59.80;99347.59;5110654;28;20038;-68